Terminal Aerodrome Forecast
Issued by NWS Shreveport, LA

Home | Current Version | Previous Version | Text Only | Print | Product List | Glossary On
Versions: 1 2 3 4 5 6 7 8 9 10 11 12 13 14 15 16 17 18 19 20 21
912
FTUS44 KSHV 181120
TAFTXK
TAF
KTXK 181120Z 1812/1912 00000KT P6SM SKC
     FM181500 21006KT P6SM SKC
     FM182000 23007KT P6SM FEW300
     FM190100 18004KT P6SM SCT300
     FM190800 19003KT P6SM SCT060 SCT300=

USA.gov is the U.S. government's official web portal to all federal, state and local government web resources and services.